Time;durP1;ratioP1;P1;durP2;ratioP2;P2;SDS_P1;SDS_P2;PMS_P1;PMS_P2;Temp;Humidity;BMP_temperature;BMP_pressure;BME280_temperature;BME280_humidity;BME280_pressure;Samples;Min_cycle;Max_cycle;Signal;HPM_P1;HPM_P2
2021/11/17 02:25:54;;;;;;;12.20;7.70;;;;;;;;;;4948265;29;20175;-87
2021/11/17 02:29:24;;;;;;;16.90;8.47;;;;;;;;;;4935379;29;20184;-87
2021/11/17 02:32:37;;;;;;;10.83;7.00;;;;;;;;;;4923243;28;20188;-87
2021/11/17 02:36:15;;;;;;;12.50;7.77;;;;;;;;;;4935443;29;20556;-87
2021/11/17 02:39:33;;;;;;;12.97;7.50;;;;;;;;;;4936782;29;20179;-87
2021/11/17 02:42:38;;;;;;;10.67;7.23;;;;;;;;;;4923366;29;20203;-86
2021/11/17 02:45:49;;;;;;;12.37;7.77;;;;;;;;;;4945808;29;20183;-87
2021/11/17 02:49:07;;;;;;;12.27;7.77;;;;;;;;;;4934880;29;20184;-86
2021/11/17 02:52:38;;;;;;;11.37;7.80;;;;;;;;;;4914327;29;20183;-86
2021/11/17 02:56:08;;;;;;;13.10;8.53;;;;;;;;;;4925731;29;20220;-87
2021/11/17 02:59:39;;;;;;;14.20;7.93;;;;;;;;;;4945253;29;20188;-86
2021/11/17 03:02:47;;;;;;;11.90;7.87;;;;;;;;;;4913887;29;20191;-86
2021/11/17 03:06:00;;;;;;;14.87;8.37;;;;;;;;;;4934371;29;20188;-87
2021/11/17 03:09:23;;;;;;;12.43;8.10;;;;;;;;;;4923132;29;20196;-87
2021/11/17 03:12:43;;;;;;;16.60;9.00;;;;;;;;;;4934286;29;20521;-86
2021/11/17 03:16:07;;;;;;;16.03;8.03;;;;;;;;;;4914195;29;20216;-86
2021/11/17 03:19:58;;;;;;;14.93;8.47;;;;;;;;;;4913651;29;20645;-86
2021/11/17 03:23:33;;;;;;;12.63;8.40;;;;;;;;;;4861310;28;20187;-86
2021/11/17 03:27:12;;;;;;;15.27;8.87;;;;;;;;;;4933877;29;20219;-87
2021/11/17 03:30:19;;;;;;;16.37;7.77;;;;;;;;;;4925358;29;20540;-86
2021/11/17 03:33:51;;;;;;;18.40;8.13;;;;;;;;;;4955650;29;20540;-86
2021/11/17 03:37:13;;;;;;;17.27;9.37;;;;;;;;;;4924952;29;20270;-87
2021/11/17 03:40:36;;;;;;;14.27;8.40;;;;;;;;;;4933719;29;20180;-87
2021/11/17 03:44:02;;;;;;;13.83;8.10;;;;;;;;;;4933817;28;20184;-86
2021/11/17 03:47:27;;;;;;;13.63;8.27;;;;;;;;;;4944310;29;20215;-87
2021/11/17 03:50:50;;;;;;;15.00;8.83;;;;;;;;;;4922697;29;20180;-86
2021/11/17 03:54:43;;;;;;;16.37;9.83;;;;;;;;;;4955584;29;20525;-86
2021/11/17 03:58:28;;;;;;;17.53;8.77;;;;;;;;;;4943756;29;20227;-86
2021/11/17 04:02:00;;;;;;;14.43;8.37;;;;;;;;;;4933173;29;20180;-86
2021/11/17 04:05:10;;;;;;;15.27;9.23;;;;;;;;;;4923606;29;20191;-86
2021/11/17 04:08:29;;;;;;;15.40;8.70;;;;;;;;;;4932836;29;20211;-86
2021/11/17 04:11:43;;;;;;;17.27;8.93;;;;;;;;;;4932988;29;20635;-86
2021/11/17 04:15:06;;;;;;;16.63;9.90;;;;;;;;;;4933093;29;20184;-86
2021/11/17 04:18:19;;;;;;;15.53;9.47;;;;;;;;;;4934320;29;20691;-86
2021/11/17 04:21:41;;;;;;;18.33;9.40;;;;;;;;;;4944049;29;20532;-86
2021/11/17 04:25:12;;;;;;;16.67;9.70;;;;;;;;;;4943552;29;20204;-87
2021/11/17 04:28:22;;;;;;;14.10;8.50;;;;;;;;;;4933471;29;20223;-86
2021/11/17 04:32:00;;;;;;;16.93;10.13;;;;;;;;;;4932227;29;20200;-86
2021/11/17 04:35:13;;;;;;;16.07;9.03;;;;;;;;;;4928528;29;20195;-87
2021/11/17 04:38:27;;;;;;;16.37;9.40;;;;;;;;;;4932567;29;20559;-88
2021/11/17 04:41:56;;;;;;;15.30;9.77;;;;;;;;;;4931317;29;20195;-86
2021/11/17 04:45:06;;;;;;;16.63;9.83;;;;;;;;;;4943577;29;20179;-86
2021/11/17 04:48:38;;;;;;;16.57;10.20;;;;;;;;;;4932682;29;20220;-87
2021/11/17 04:52:27;;;;;;;17.63;10.17;;;;;;;;;;4924599;29;20678;-86
2021/11/17 04:55:50;;;;;;;23.47;10.77;;;;;;;;;;4943780;28;20207;-86
2021/11/17 04:59:35;;;;;;;18.47;10.40;;;;;;;;;;4978079;23;20256;-87
2021/11/17 05:03:01;;;;;;;17.27;10.27;;;;;;;;;;4921670;29;20195;-90
2021/11/17 05:06:35;;;;;;;19.50;11.47;;;;;;;;;;4947709;29;20191;-88
2021/11/17 05:10:20;;;;;;;18.00;10.53;;;;;;;;;;4898656;29;20218;-88
2021/11/17 05:14:20;;;;;;;17.13;10.50;;;;;;;;;;4912137;29;20188;-88
2021/11/17 05:17:41;;;;;;;17.87;11.53;;;;;;;;;;4917380;29;20239;-89
2021/11/17 05:21:07;;;;;;;19.53;10.93;;;;;;;;;;4919500;29;20197;-88
2021/11/17 05:24:39;;;;;;;17.50;10.70;;;;;;;;;;4907734;29;20225;-88
2021/11/17 05:28:01;;;;;;;17.10;11.40;;;;;;;;;;4908536;29;20207;-92
2021/11/17 05:31:49;;;;;;;17.83;11.63;;;;;;;;;;4906385;29;20570;-88
2021/11/17 05:35:10;;;;;;;16.77;10.93;;;;;;;;;;4906306;29;20185;-88
2021/11/17 05:38:20;;;;;;;16.77;10.63;;;;;;;;;;4896805;29;20243;-88
2021/11/17 05:41:40;;;;;;;;;;;;;;;;;;;;;
2021/11/17 05:45:27;;;;;;;17.70;10.73;;;;;;;;;;4927744;29;20652;-89
2021/11/17 05:48:56;;;;;;;19.20;11.27;;;;;;;;;;4895688;29;20231;-90
2021/11/17 05:52:01;;;;;;;17.63;11.27;;;;;;;;;;4908601;29;20184;-89
2021/11/17 05:55:35;;;;;;;18.20;10.47;;;;;;;;;;4905857;29;20184;-89
2021/11/17 05:58:55;;;;;;;19.20;10.97;;;;;;;;;;4907856;29;20227;-88
2021/11/17 06:02:21;;;;;;;19.37;11.07;;;;;;;;;;4905905;29;20189;-88
2021/11/17 06:05:28;;;;;;;17.33;10.73;;;;;;;;;;4908584;29;20191;-88
2021/11/17 06:08:32;;;;;;;18.00;11.47;;;;;;;;;;4904293;29;20246;-88
2021/11/17 06:11:48;;;;;;;19.13;10.93;;;;;;;;;;4905826;29;20192;-89
2021/11/17 06:14:53;;;;;;;15.83;9.97;;;;;;;;;;4906194;29;20195;-88
2021/11/17 06:18:01;;;;;;;17.10;10.40;;;;;;;;;;4905457;29;20236;-88
2021/11/17 06:21:10;;;;;;;19.47;11.47;;;;;;;;;;4916730;29;20195;-88
2021/11/17 06:24:20;;;;;;;18.97;11.37;;;;;;;;;;4916935;29;20192;-89
2021/11/17 06:27:33;;;;;;;16.67;10.77;;;;;;;;;;4905944;29;20228;-88
2021/11/17 06:30:46;;;;;;;16.43;11.07;;;;;;;;;;4905322;29;20199;-88
2021/11/17 06:33:50;;;;;;;15.53;10.07;;;;;;;;;;4905455;29;20196;-88
2021/11/17 06:37:00;;;;;;;18.87;11.03;;;;;;;;;;4905059;29;20305;-88
2021/11/17 06:40:13;;;;;;;16.87;11.27;;;;;;;;;;4926251;29;20195;-88
2021/11/17 06:43:18;;;;;;;19.33;12.67;;;;;;;;;;4905564;29;20675;-88
2021/11/17 06:46:23;;;;;;;20.63;12.10;;;;;;;;;;4905133;29;20185;-88
2021/11/17 06:49:27;;;;;;;17.33;10.10;;;;;;;;;;4915903;29;20551;-88
2021/11/17 06:52:35;;;;;;;16.93;10.97;;;;;;;;;;4905721;29;20184;-88
2021/11/17 06:55:41;;;;;;;15.87;10.33;;;;;;;;;;4915842;29;20184;-88
2021/11/17 06:58:48;;;;;;;18.63;12.37;;;;;;;;;;4905197;29;20239;-90
2021/11/17 07:01:53;;;;;;;19.00;11.87;;;;;;;;;;4904787;29;20185;-90
2021/11/17 07:04:57;;;;;;;20.27;12.50;;;;;;;;;;4904811;29;20197;-89
2021/11/17 07:08:04;;;;;;;20.10;12.53;;;;;;;;;;4904471;29;20702;-89
2021/11/17 07:11:09;;;;;;;22.20;12.17;;;;;;;;;;4904697;29;20183;-89
2021/11/17 07:14:16;;;;;;;20.67;12.80;;;;;;;;;;4904689;29;20176;-89
2021/11/17 07:17:23;;;;;;;24.10;14.73;;;;;;;;;;4926281;29;20246;-89
2021/11/17 07:20:32;;;;;;;22.90;12.33;;;;;;;;;;4904563;29;20187;-89
2021/11/17 07:23:40;;;;;;;19.50;11.97;;;;;;;;;;4904656;29;20187;-89
2021/11/17 07:26:44;;;;;;;18.33;11.67;;;;;;;;;;4904342;29;20180;-89
2021/11/17 07:29:56;;;;;;;19.53;11.60;;;;;;;;;;4904907;29;20184;-88
2021/11/17 07:33:02;;;;;;;20.17;11.73;;;;;;;;;;4904512;29;20185;-89
2021/11/17 07:36:09;;;;;;;20.00;12.30;;;;;;;;;;4904800;29;20200;-89
2021/11/17 07:39:16;;;;;;;22.30;11.90;;;;;;;;;;4914907;29;20176;-89
2021/11/17 07:42:21;;;;;;;20.77;11.53;;;;;;;;;;4914867;29;20169;-89
2021/11/17 07:45:28;;;;;;;19.53;12.37;;;;;;;;;;4904281;29;20192;-89
2021/11/17 07:48:33;;;;;;;18.83;10.93;;;;;;;;;;4903868;29;20222;-89
2021/11/17 07:51:37;;;;;;;19.20;11.37;;;;;;;;;;4903844;29;20668;-89
2021/11/17 07:54:42;;;;;;;19.73;11.13;;;;;;;;;;4914723;29;20539;-89
2021/11/17 07:57:49;;;;;;;16.57;10.87;;;;;;;;;;4903395;29;20227;-89
2021/11/17 08:00:59;;;;;;;18.50;11.43;;;;;;;;;;4904004;29;20189;-88
2021/11/17 08:04:05;;;;;;;17.67;11.07;;;;;;;;;;4914630;29;20251;-89
2021/11/17 08:07:14;;;;;;;17.07;9.93;;;;;;;;;;4903554;29;20581;-89
2021/11/17 08:10:24;;;;;;;16.63;10.50;;;;;;;;;;4914039;29;20180;-89
2021/11/17 08:13:28;;;;;;;19.27;11.80;;;;;;;;;;4903141;29;20672;-87
2021/11/17 08:16:32;;;;;;;17.07;10.60;;;;;;;;;;4935513;29;20204;-87
2021/11/17 08:19:36;;;;;;;17.13;9.87;;;;;;;;;;4915425;29;20191;-87
2021/11/17 08:22:43;;;;;;;18.83;11.30;;;;;;;;;;4906127;29;20192;-90
2021/11/17 08:25:47;;;;;;;15.83;10.10;;;;;;;;;;4895708;29;20565;-88
2021/11/17 08:28:52;;;;;;;16.43;10.53;;;;;;;;;;4895505;29;20231;-85
2021/11/17 08:31:56;;;;;;;18.23;10.77;;;;;;;;;;4912905;29;20206;-87
2021/11/17 08:35:00;;;;;;;14.87;9.40;;;;;;;;;;4923940;29;20187;-87
2021/11/17 08:38:08;;;;;;;15.07;10.53;;;;;;;;;;4914001;29;20232;-88
2021/11/17 08:41:13;;;;;;;14.23;9.57;;;;;;;;;;4921814;29;20200;-88
2021/11/17 08:44:17;;;;;;;13.80;9.10;;;;;;;;;;4924547;29;20204;-88
2021/11/17 08:47:26;;;;;;;15.80;10.90;;;;;;;;;;4903214;29;20215;-91
2021/11/17 08:50:32;;;;;;;16.07;10.67;;;;;;;;;;4913986;29;20192;-88
2021/11/17 08:53:39;;;;;;;16.37;9.97;;;;;;;;;;4903065;29;20571;-88
2021/11/17 08:56:44;;;;;;;16.13;10.10;;;;;;;;;;4902669;29;20552;-88
2021/11/17 08:59:50;;;;;;;16.33;10.30;;;;;;;;;;4935714;29;20200;-89
2021/11/17 09:02:55;;;;;;;17.80;10.80;;;;;;;;;;4903659;29;20201;-88
2021/11/17 09:06:01;;;;;;;18.27;10.57;;;;;;;;;;4903067;29;20678;-88
2021/11/17 09:09:06;;;;;;;15.97;10.07;;;;;;;;;;4924995;29;20216;-88
2021/11/17 09:12:15;;;;;;;15.63;10.50;;;;;;;;;;4914079;29;20188;-90
2021/11/17 09:15:22;;;;;;;16.90;10.03;;;;;;;;;;4914084;29;20184;-89
2021/11/17 09:18:30;;;;;;;15.73;10.53;;;;;;;;;;4903484;29;20752;-89
2021/11/17 09:21:37;;;;;;;14.33;9.47;;;;;;;;;;4903379;29;20184;-90
2021/11/17 09:24:41;;;;;;;25.33;19.17;;;;;;;;;;4903183;29;20527;-88
2021/11/17 09:27:46;;;;;;;15.77;10.20;;;;;;;;;;4905301;29;20595;-88
2021/11/17 09:30:51;;;;;;;14.70;9.27;;;;;;;;;;4894797;29;20194;-88
2021/11/17 09:33:55;;;;;;;17.77;11.30;;;;;;;;;;4884084;29;20193;-88
2021/11/17 09:37:03;;;;;;;12.87;9.40;;;;;;;;;;4884269;29;20189;-88
2021/11/17 09:40:09;;;;;;;16.87;13.60;;;;;;;;;;4912532;29;20207;-88
2021/11/17 09:43:17;;;;;;;14.23;9.43;;;;;;;;;;4905616;29;20191;-88
2021/11/17 09:46:24;;;;;;;14.07;11.07;;;;;;;;;;4917352;29;20180;-88
2021/11/17 09:49:56;;;;;;;12.83;9.30;;;;;;;;;;4905452;29;20192;-88
2021/11/17 09:53:39;;;;;;;14.33;10.23;;;;;;;;;;4905558;29;20200;-87
2021/11/17 09:56:47;;;;;;;10.60;7.33;;;;;;;;;;4905955;29;20192;-89
2021/11/17 10:00:06;;;;;;;11.30;7.63;;;;;;;;;;4906053;29;20177;-88
2021/11/17 10:03:15;;;;;;;12.07;6.77;;;;;;;;;;4916287;29;20200;-88
2021/11/17 10:13:25;;;;;;;9.30;6.40;;;;;;;;;;4916539;29;20531;-88
2021/11/17 10:16:30;;;;;;;23.23;13.50;;;;;;;;;;4897553;29;20666;-88
2021/11/17 10:19:36;;;;;;;22.00;12.60;;;;;;;;;;4934305;29;20230;-88
2021/11/17 10:22:45;;;;;;;63.80;41.00;;;;;;;;;;4917975;29;20561;-85
2021/11/17 10:26:13;;;;;;;21.63;15.47;;;;;;;;;;4905981;29;20184;-89
2021/11/17 10:29:31;;;;;;;14.67;7.80;;;;;;;;;;4919106;29;20188;-88
2021/11/17 10:33:03;;;;;;;8.80;6.43;;;;;;;;;;4908214;29;20525;-88
2021/11/17 10:36:32;;;;;;;9.77;8.00;;;;;;;;;;4897512;29;20189;-88
2021/11/17 10:39:39;;;;;;;8.43;6.37;;;;;;;;;;4887039;29;20177;-89
2021/11/17 10:42:44;;;;;;;10.77;6.77;;;;;;;;;;4899147;29;20188;-88
2021/11/17 10:45:56;;;;;;;10.97;7.80;;;;;;;;;;4916845;29;20516;-88
2021/11/17 10:49:13;;;;;;;8.83;6.13;;;;;;;;;;4916185;29;20204;-88
2021/11/17 10:52:48;;;;;;;10.00;7.73;;;;;;;;;;4904913;29;20672;-88
2021/11/17 10:55:54;;;;;;;10.83;9.60;;;;;;;;;;4915425;29;20184;-89
2021/11/17 11:34:44;;;;;;;8.17;5.93;;;;;;;;;;4774947;29;20205;-90
2021/11/17 11:38:48;;;;;;;7.80;6.13;;;;;;;;;;4893548;23;20238;-72
2021/11/17 11:42:32;;;;;;;8.57;6.80;;;;;;;;;;4960550;28;20211;-72
2021/11/17 11:45:45;;;;;;;6.03;4.57;;;;;;;;;;4953976;29;20200;-72
2021/11/17 11:48:59;;;;;;;8.50;4.70;;;;;;;;;;4955432;29;20191;-74
2021/11/17 11:52:19;;;;;;;7.13;5.37;;;;;;;;;;4947439;29;20227;-73
2021/11/17 11:55:25;;;;;;;6.73;4.77;;;;;;;;;;4955032;29;20658;-72
2021/11/17 11:58:37;;;;;;;8.23;5.30;;;;;;;;;;4954087;29;20227;-72
2021/11/17 12:01:43;;;;;;;6.97;5.47;;;;;;;;;;4955593;29;20231;-72
2021/11/17 12:04:51;;;;;;;10.03;6.77;;;;;;;;;;4945563;29;20196;-72
2021/11/17 12:08:03;;;;;;;8.30;5.90;;;;;;;;;;4949653;29;20199;-71
2021/11/17 12:11:33;;;;;;;7.17;5.17;;;;;;;;;;4954553;29;20227;-72
2021/11/17 12:14:45;;;;;;;6.40;4.80;;;;;;;;;;4943773;29;20188;-72
2021/11/17 12:18:05;;;;;;;6.43;5.03;;;;;;;;;;4954634;29;20188;-72
2021/11/17 12:21:15;;;;;;;12.83;7.70;;;;;;;;;;4955836;29;20536;-72
2021/11/17 12:24:20;;;;;;;32.77;19.53;;;;;;;;;;4955683;29;20183;-72
2021/11/17 12:27:33;;;;;;;23.97;14.47;;;;;;;;;;4943606;29;20179;-72
2021/11/17 12:30:48;;;;;;;8.43;6.57;;;;;;;;;;4943500;29;20223;-72
2021/11/17 12:33:57;;;;;;;7.17;5.10;;;;;;;;;;4955183;29;20184;-72
2021/11/17 12:37:04;;;;;;;6.53;4.60;;;;;;;;;;4955012;29;20184;-72
2021/11/17 12:40:12;;;;;;;11.70;5.10;;;;;;;;;;4954429;29;20195;-71
2021/11/17 12:43:30;;;;;;;8.13;4.70;;;;;;;;;;4954419;29;20183;-72
2021/11/17 12:46:42;;;;;;;5.77;4.50;;;;;;;;;;4953168;29;20199;-72
2021/11/17 12:49:51;;;;;;;6.83;4.67;;;;;;;;;;4949713;29;20653;-72
2021/11/17 12:53:00;;;;;;;5.70;4.47;;;;;;;;;;4955049;29;20203;-72
2021/11/17 12:56:20;;;;;;;8.83;6.67;;;;;;;;;;4954263;29;20195;-72
2021/11/17 12:59:38;;;;;;;21.17;14.27;;;;;;;;;;4953963;29;20216;-73
2021/11/17 13:02:57;;;;;;;39.00;22.97;;;;;;;;;;4953910;29;20200;-73
2021/11/17 13:06:06;;;;;;;56.97;36.17;;;;;;;;;;4953936;29;20195;-72
2021/11/17 13:09:25;;;;;;;40.17;18.70;;;;;;;;;;4945607;29;20557;-72
2021/11/17 13:12:32;;;;;;;36.03;14.17;;;;;;;;;;4949030;29;20223;-72
2021/11/17 13:15:41;;;;;;;14.17;6.37;;;;;;;;;;4945632;29;20194;-72
2021/11/17 13:18:45;;;;;;;5.13;3.73;;;;;;;;;;4957275;29;20219;-72
2021/11/17 13:21:52;;;;;;;3.73;2.70;;;;;;;;;;4958655;29;20563;-72
2021/11/17 13:25:26;;;;;;;4.07;2.83;;;;;;;;;;4957914;29;20200;-72
2021/11/17 13:28:49;;;;;;;4.03;2.83;;;;;;;;;;4954273;29;20196;-73
2021/11/17 13:32:00;;;;;;;3.57;2.83;;;;;;;;;;4956777;29;20219;-73
2021/11/17 13:35:29;;;;;;;5.33;2.60;;;;;;;;;;4949242;29;20188;-73
2021/11/17 13:38:54;;;;;;;3.63;3.03;;;;;;;;;;4957489;29;20223;-73
2021/11/17 13:41:58;;;;;;;3.23;2.40;;;;;;;;;;4956416;29;20227;-72
2021/11/17 13:45:08;;;;;;;3.93;2.33;;;;;;;;;;4956126;29;20199;-73
2021/11/17 13:48:16;;;;;;;2.90;2.37;;;;;;;;;;4958271;29;20184;-73
2021/11/17 13:51:23;;;;;;;3.30;2.60;;;;;;;;;;4957389;29;20219;-73
2021/11/17 13:54:27;;;;;;;2.87;2.30;;;;;;;;;;4958228;29;20183;-73
2021/11/17 13:57:31;;;;;;;3.50;2.67;;;;;;;;;;4957553;29;20192;-73
2021/11/17 14:00:41;;;;;;;3.63;2.63;;;;;;;;;;4956945;29;20219;-73
2021/11/17 14:03:46;;;;;;;5.50;3.33;;;;;;;;;;4937754;29;20192;-73
2021/11/17 14:06:51;;;;;;;4.90;3.30;;;;;;;;;;4951639;29;20203;-73
2021/11/17 14:09:55;;;;;;;5.77;4.53;;;;;;;;;;4957693;29;20179;-73
2021/11/17 14:13:00;;;;;;;10.50;7.30;;;;;;;;;;4956281;29;20207;-73
2021/11/17 14:16:05;;;;;;;7.63;6.80;;;;;;;;;;4939032;29;20192;-72
2021/11/17 14:19:10;;;;;;;5.17;4.43;;;;;;;;;;4956294;29;20219;-73
2021/11/17 14:22:14;;;;;;;5.93;4.03;;;;;;;;;;4956967;29;20219;-73
2021/11/17 14:25:21;;;;;;;5.60;4.03;;;;;;;;;;4945331;29;20191;-74
2021/11/17 14:28:30;;;;;;;6.63;3.93;;;;;;;;;;4961770;28;20195;-74
2021/11/17 14:31:41;;;;;;;22.00;12.70;;;;;;;;;;4960036;28;20638;-74
2021/11/17 14:34:45;;;;;;;10.83;7.83;;;;;;;;;;4956384;29;20182;-73
2021/11/17 14:37:49;;;;;;;8.27;5.80;;;;;;;;;;4956936;29;20215;-73
2021/11/17 14:40:53;;;;;;;4.87;3.67;;;;;;;;;;4956193;29;20219;-72
2021/11/17 14:43:58;;;;;;;6.23;3.57;;;;;;;;;;4956376;29;20195;-73
2021/11/17 14:47:03;;;;;;;7.53;5.40;;;;;;;;;;4956698;29;20539;-73
2021/11/17 14:50:09;;;;;;;5.73;4.00;;;;;;;;;;4956123;29;20171;-73
2021/11/17 14:53:14;;;;;;;6.80;4.37;;;;;;;;;;4950487;29;20196;-72
2021/11/17 14:56:20;;;;;;;7.07;5.13;;;;;;;;;;4947283;29;20188;-72
2021/11/17 14:59:24;;;;;;;9.53;4.97;;;;;;;;;;4944385;29;20223;-73
2021/11/17 15:02:29;;;;;;;6.80;3.93;;;;;;;;;;4955976;29;20222;-72
2021/11/17 15:05:34;;;;;;;7.33;4.17;;;;;;;;;;4956365;29;20195;-73
2021/11/17 15:08:38;;;;;;;7.27;5.50;;;;;;;;;;4955842;29;20523;-72
2021/11/17 15:11:58;;;;;;;15.80;10.13;;;;;;;;;;4956229;28;20223;-73
2021/11/17 15:15:08;;;;;;;10.23;7.33;;;;;;;;;;4955853;29;20209;-73
2021/11/17 15:18:16;;;;;;;13.87;9.53;;;;;;;;;;4954860;29;20187;-72
2021/11/17 15:21:21;;;;;;;7.70;5.70;;;;;;;;;;4954865;29;20220;-72
2021/11/17 15:24:27;;;;;;;13.63;7.50;;;;;;;;;;4955386;29;20187;-72
2021/11/17 15:27:40;;;;;;;6.60;4.73;;;;;;;;;;4955390;29;20192;-72
2021/11/17 15:30:48;;;;;;;8.70;5.03;;;;;;;;;;4955654;29;20698;-72
2021/11/17 15:33:53;;;;;;;5.97;3.70;;;;;;;;;;4955662;29;20196;-73
2021/11/17 15:36:57;;;;;;;6.43;4.00;;;;;;;;;;4955154;29;20294;-73
2021/11/17 15:40:04;;;;;;;5.43;4.20;;;;;;;;;;4955236;28;20215;-73
2021/11/17 15:43:09;;;;;;;4.33;3.40;;;;;;;;;;4956016;29;20188;-73
2021/11/17 15:46:13;;;;;;;5.67;3.93;;;;;;;;;;4955126;29;20187;-72
2021/11/17 15:49:17;;;;;;;5.87;4.33;;;;;;;;;;4955957;29;20176;-72
2021/11/17 15:52:22;;;;;;;11.00;9.90;;;;;;;;;;4955116;29;20215;-72
2021/11/17 15:55:26;;;;;;;5.27;4.77;;;;;;;;;;4954556;29;20199;-73
2021/11/17 15:58:30;;;;;;;5.73;4.13;;;;;;;;;;4955008;29;20627;-73
2021/11/17 16:01:34;;;;;;;6.47;4.40;;;;;;;;;;4955071;29;20556;-72
2021/11/17 16:04:39;;;;;;;6.93;4.27;;;;;;;;;;4953647;29;20195;-72
2021/11/17 16:07:43;;;;;;;5.50;4.30;;;;;;;;;;4955371;29;20187;-72
2021/11/17 16:10:48;;;;;;;4.40;3.13;;;;;;;;;;4954398;29;20214;-73
2021/11/17 16:13:52;;;;;;;9.93;5.67;;;;;;;;;;4955368;29;20196;-72
2021/11/17 16:16:57;;;;;;;8.03;6.23;;;;;;;;;;4943343;29;20180;-72
2021/11/17 16:20:01;;;;;;;8.80;5.20;;;;;;;;;;4954147;29;20215;-72
2021/11/17 16:26:26;;;;;;;4.50;3.23;;;;;;;;;;4935296;29;20192;-72
2021/11/17 16:29:30;;;;;;;5.83;4.40;;;;;;;;;;4952518;29;20643;-73
2021/11/17 16:32:34;;;;;;;4.80;3.60;;;;;;;;;;4954331;28;20223;-72
2021/11/17 16:35:39;;;;;;;6.73;4.00;;;;;;;;;;4950532;29;20187;-72
2021/11/17 16:38:45;;;;;;;6.90;5.57;;;;;;;;;;4944129;29;20210;-73
2021/11/17 16:41:49;;;;;;;5.93;4.50;;;;;;;;;;4954873;29;20228;-72
2021/11/17 16:44:53;;;;;;;5.00;4.23;;;;;;;;;;4943691;29;20179;-72
2021/11/17 16:47:58;;;;;;;6.37;3.70;;;;;;;;;;4935881;29;20181;-72
2021/11/17 16:51:03;;;;;;;6.03;3.47;;;;;;;;;;4936800;29;20224;-73
2021/11/17 16:54:07;;;;;;;5.23;3.87;;;;;;;;;;4942016;29;20199;-72
2021/11/17 16:57:12;;;;;;;5.07;3.67;;;;;;;;;;4941907;29;20199;-72
2021/11/17 17:00:20;;;;;;;4.73;4.00;;;;;;;;;;4954674;29;20211;-72
2021/11/17 17:03:28;;;;;;;4.80;4.13;;;;;;;;;;4955031;29;20203;-72
2021/11/17 17:06:33;;;;;;;5.60;4.87;;;;;;;;;;4941090;29;20187;-72
2021/11/17 17:09:38;;;;;;;5.40;4.43;;;;;;;;;;4954938;29;20175;-72
2021/11/17 17:12:42;;;;;;;5.13;3.90;;;;;;;;;;4943153;29;20199;-72
2021/11/17 17:15:48;;;;;;;6.73;4.13;;;;;;;;;;4954514;29;20191;-72
2021/11/17 17:18:52;;;;;;;8.03;5.63;;;;;;;;;;4935568;29;20184;-72
2021/11/17 17:21:57;;;;;;;30.60;19.60;;;;;;;;;;4935735;29;20572;-72
2021/11/17 17:25:03;;;;;;;13.77;10.83;;;;;;;;;;4946505;29;20198;-72
2021/11/17 17:28:13;;;;;;;8.87;6.73;;;;;;;;;;4939324;29;20196;-72
2021/11/17 17:31:20;;;;;;;26.10;15.77;;;;;;;;;;4952639;29;20211;-72
2021/11/17 17:34:24;;;;;;;13.33;9.90;;;;;;;;;;4953293;29;20626;-72
2021/11/17 17:37:28;;;;;;;6.93;5.67;;;;;;;;;;4953236;29;20184;-73
2021/11/17 17:40:32;;;;;;;6.47;5.40;;;;;;;;;;4954142;29;20211;-72
2021/11/17 17:43:37;;;;;;;4.63;4.13;;;;;;;;;;4950498;29;20275;-72
2021/11/17 17:46:41;;;;;;;5.90;4.73;;;;;;;;;;4953476;29;20180;-72
2021/11/17 17:49:46;;;;;;;5.70;4.70;;;;;;;;;;4941972;29;20195;-72
2021/11/17 17:52:50;;;;;;;5.70;4.30;;;;;;;;;;4953084;29;20196;-72
2021/11/17 17:55:55;;;;;;;5.90;4.53;;;;;;;;;;4953786;29;20203;-72
2021/11/17 17:58:59;;;;;;;5.20;4.10;;;;;;;;;;4953682;29;20199;-72
2021/11/17 18:02:05;;;;;;;5.20;3.53;;;;;;;;;;4953623;29;20219;-72
2021/11/17 18:05:10;;;;;;;7.50;4.60;;;;;;;;;;4923060;29;20185;-72
2021/11/17 18:08:16;;;;;;;5.37;4.13;;;;;;;;;;4951648;29;20207;-72
2021/11/17 18:11:22;;;;;;;9.83;7.27;;;;;;;;;;4953693;29;20579;-73
2021/11/17 18:14:26;;;;;;;7.63;6.03;;;;;;;;;;4926196;29;20199;-72
2021/11/17 18:17:30;;;;;;;12.63;8.73;;;;;;;;;;4946780;29;20206;-73
2021/11/17 18:20:34;;;;;;;9.00;5.93;;;;;;;;;;4952022;29;20243;-72
2021/11/17 18:23:39;;;;;;;7.07;4.57;;;;;;;;;;4952309;29;20227;-73
2021/11/17 18:26:50;;;;;;;6.77;4.30;;;;;;;;;;4937348;29;20192;-73
2021/11/17 18:29:54;;;;;;;6.40;4.77;;;;;;;;;;4934334;29;20521;-72
2021/11/17 18:33:00;;;;;;;8.57;6.70;;;;;;;;;;4933866;29;20184;-73
2021/11/17 18:36:06;;;;;;;8.27;5.80;;;;;;;;;;4946062;29;20200;-73
2021/11/17 18:39:10;;;;;;;6.00;5.03;;;;;;;;;;4953210;29;20524;-73
2021/11/17 18:42:22;;;;;;;5.87;4.50;;;;;;;;;;4951967;29;20219;-73
2021/11/17 18:45:30;;;;;;;8.57;4.17;;;;;;;;;;4951642;29;20191;-73
2021/11/17 18:48:34;;;;;;;9.80;4.50;;;;;;;;;;4953162;29;20551;-72
2021/11/17 18:51:41;;;;;;;5.30;4.57;;;;;;;;;;4952844;29;20211;-73
2021/11/17 18:54:46;;;;;;;6.80;5.07;;;;;;;;;;4935905;29;20203;-72
2021/11/17 18:57:50;;;;;;;8.50;5.17;;;;;;;;;;4952481;29;20187;-72
2021/11/17 19:01:00;;;;;;;5.90;4.80;;;;;;;;;;4951625;29;20564;-73
2021/11/17 19:04:04;;;;;;;5.60;4.90;;;;;;;;;;4951957;29;20195;-73
2021/11/17 19:07:08;;;;;;;9.90;7.17;;;;;;;;;;4932422;29;20196;-72
2021/11/17 19:10:18;;;;;;;10.87;7.53;;;;;;;;;;4951772;29;20176;-73
2021/11/17 19:13:23;;;;;;;10.63;7.63;;;;;;;;;;4950982;29;20188;-73
2021/11/17 19:16:30;;;;;;;14.73;8.10;;;;;;;;;;4951418;29;20184;-73
2021/11/17 19:19:35;;;;;;;7.20;5.77;;;;;;;;;;4951651;29;20544;-72
2021/11/17 19:22:47;;;;;;;8.00;6.17;;;;;;;;;;4951490;29;20215;-72
2021/11/17 19:25:51;;;;;;;9.33;5.90;;;;;;;;;;4952098;29;20207;-72
2021/11/17 19:28:55;;;;;;;8.13;5.57;;;;;;;;;;4952504;29;20191;-72
2021/11/17 19:32:00;;;;;;;9.43;6.03;;;;;;;;;;4951225;28;20575;-73
2021/11/17 19:35:06;;;;;;;7.20;5.60;;;;;;;;;;4951052;29;20195;-73
2021/11/17 19:38:13;;;;;;;8.23;5.97;;;;;;;;;;4940408;29;20211;-72
2021/11/17 19:41:20;;;;;;;9.47;5.63;;;;;;;;;;4932790;29;20580;-72
2021/11/17 19:44:24;;;;;;;9.47;5.83;;;;;;;;;;4942952;29;20192;-72
2021/11/17 19:47:28;;;;;;;8.63;6.20;;;;;;;;;;4934307;29;20595;-73
2021/11/17 19:50:33;;;;;;;10.27;8.77;;;;;;;;;;4951842;29;20532;-73
2021/11/17 19:53:38;;;;;;;89.43;52.77;;;;;;;;;;4951679;29;20203;-73
2021/11/17 19:56:43;;;;;;;22.43;15.23;;;;;;;;;;4939186;29;20392;-73
2021/11/17 19:59:49;;;;;;;10.43;7.43;;;;;;;;;;4950890;29;20199;-72
2021/11/17 20:02:55;;;;;;;9.00;7.20;;;;;;;;;;4950848;29;20183;-72
2021/11/17 20:05:59;;;;;;;12.13;6.63;;;;;;;;;;4950821;29;20199;-72
2021/11/17 20:09:05;;;;;;;9.37;7.23;;;;;;;;;;4920520;29;20200;-73
2021/11/17 20:12:11;;;;;;;9.70;6.47;;;;;;;;;;4948315;29;20211;-72
2021/11/17 20:15:19;;;;;;;8.77;6.57;;;;;;;;;;4939714;29;20180;-72
2021/11/17 20:18:24;;;;;;;9.03;7.10;;;;;;;;;;4950792;29;20543;-73
2021/11/17 20:21:29;;;;;;;10.80;6.70;;;;;;;;;;4950138;29;20227;-72
2021/11/17 20:24:33;;;;;;;9.57;6.67;;;;;;;;;;4951398;29;20195;-73
2021/11/17 20:27:39;;;;;;;9.47;6.70;;;;;;;;;;4951118;28;20196;-72
2021/11/17 20:30:44;;;;;;;8.87;6.67;;;;;;;;;;4950079;29;20219;-75
2021/11/17 20:33:48;;;;;;;9.17;6.27;;;;;;;;;;4950523;29;20207;-72
2021/11/17 20:36:52;;;;;;;7.53;6.20;;;;;;;;;;4932540;29;20795;-73
2021/11/17 20:39:56;;;;;;;10.83;6.97;;;;;;;;;;4948362;29;20211;-72
2021/11/17 20:43:04;;;;;;;8.27;6.67;;;;;;;;;;4950526;29;20191;-72
2021/11/17 20:46:10;;;;;;;10.13;6.83;;;;;;;;;;4950778;29;20188;-72
2021/11/17 20:49:14;;;;;;;10.27;6.97;;;;;;;;;;4950655;29;20199;-72
2021/11/17 20:52:18;;;;;;;17.37;7.07;;;;;;;;;;4934444;29;20571;-73
2021/11/17 20:55:23;;;;;;;9.30;6.97;;;;;;;;;;4931188;29;20528;-72
2021/11/17 20:58:28;;;;;;;9.37;6.97;;;;;;;;;;4920582;29;20640;-73
2021/11/17 21:01:33;;;;;;;10.33;6.97;;;;;;;;;;4943095;28;20228;-73
2021/11/17 21:04:38;;;;;;;9.40;7.30;;;;;;;;;;4939427;29;20551;-73
2021/11/17 21:07:42;;;;;;;9.57;6.83;;;;;;;;;;4949919;29;20203;-73
2021/11/17 21:10:52;;;;;;;15.97;8.23;;;;;;;;;;4950979;29;20694;-73
2021/11/17 21:13:57;;;;;;;11.40;7.43;;;;;;;;;;4950194;29;20196;-72
2021/11/17 21:17:04;;;;;;;16.77;11.17;;;;;;;;;;4975594;23;20234;-74
2021/11/17 21:20:09;;;;;;;16.70;9.60;;;;;;;;;;4973447;28;20681;-73
2021/11/17 21:23:15;;;;;;;11.40;7.93;;;;;;;;;;4947842;29;20195;-73
2021/11/17 21:26:20;;;;;;;14.50;8.63;;;;;;;;;;4937332;29;20192;-73
2021/11/17 21:29:25;;;;;;;12.30;9.30;;;;;;;;;;4926512;29;20195;-73
2021/11/17 21:32:30;;;;;;;13.57;8.47;;;;;;;;;;4953181;28;20220;-73
2021/11/17 21:35:36;;;;;;;13.63;9.47;;;;;;;;;;4953263;29;20199;-73
2021/11/17 21:38:40;;;;;;;12.93;8.70;;;;;;;;;;4955556;28;20191;-73
2021/11/17 21:41:44;;;;;;;13.17;8.47;;;;;;;;;;4957723;29;20227;-73
2021/11/17 21:44:48;;;;;;;13.43;8.53;;;;;;;;;;4945807;29;20195;-73
2021/11/17 21:47:53;;;;;;;11.90;8.47;;;;;;;;;;4958035;29;20195;-73
2021/11/17 21:50:58;;;;;;;13.57;8.50;;;;;;;;;;4957663;29;20223;-73
2021/11/17 21:54:02;;;;;;;13.10;8.97;;;;;;;;;;4935129;29;20195;-74
2021/11/17 21:57:06;;;;;;;12.53;9.13;;;;;;;;;;4942901;29;20187;-73
2021/11/17 22:00:14;;;;;;;11.70;9.17;;;;;;;;;;4951717;29;20183;-73
2021/11/17 22:03:20;;;;;;;12.67;8.67;;;;;;;;;;4943730;29;20180;-73